sensor_id;sensor_type;location;lat;lon;timestamp;P1;durP1;ratioP1;P2;durP2;ratioP2
13240;SDS011;6687;47.790;7.322;2022-11-15T06:12:35;0.77;;;0.70;;
13240;SDS011;6687;47.790;7.322;2022-11-15T06:15:02;0.50;;;0.50;;
13240;SDS011;6687;47.790;7.322;2022-11-15T06:17:29;0.30;;;0.30;;
13240;SDS011;6687;47.790;7.322;2022-11-15T06:19:56;0.30;;;0.30;;
13240;SDS011;6687;47.790;7.322;2022-11-15T06:22:22;0.40;;;0.40;;
13240;SDS011;6687;47.790;7.322;2022-11-15T06:24:49;0.40;;;0.40;;
13240;SDS011;6687;47.790;7.322;2022-11-15T06:27:16;1.35;;;1.25;;
13240;SDS011;6687;47.790;7.322;2022-11-15T06:29:44;0.50;;;0.50;;
13240;SDS011;6687;47.790;7.322;2022-11-15T06:32:11;0.70;;;0.70;;
13240;SDS011;6687;47.790;7.322;2022-11-15T06:34:37;1.08;;;0.88;;
13240;SDS011;6687;47.790;7.322;2022-11-15T06:37:04;0.88;;;0.65;;
13240;SDS011;6687;47.790;7.322;2022-11-15T06:39:31;0.85;;;0.70;;
13240;SDS011;6687;47.790;7.322;2022-11-15T06:41:57;0.40;;;0.40;;
13240;SDS011;6687;47.790;7.322;2022-11-15T06:44:24;1.15;;;0.93;;
13240;SDS011;6687;47.790;7.322;2022-11-15T06:46:52;0.40;;;0.40;;
13240;SDS011;6687;47.790;7.322;2022-11-15T06:49:19;1.65;;;1.05;;
13240;SDS011;6687;47.790;7.322;2022-11-15T06:51:46;0.80;;;0.75;;
13240;SDS011;6687;47.790;7.322;2022-11-15T06:54:12;0.47;;;0.47;;
13240;SDS011;6687;47.790;7.322;2022-11-15T06:56:39;0.35;;;0.35;;
13240;SDS011;6687;47.790;7.322;2022-11-15T06:59:06;0.35;;;0.35;;
13240;SDS011;6687;47.790;7.322;2022-11-15T07:01:32;0.63;;;0.50;;
13240;SDS011;6687;47.790;7.322;2022-11-15T07:04:00;0.40;;;0.40;;
13240;SDS011;6687;47.790;7.322;2022-11-15T07:06:27;0.30;;;0.30;;
13240;SDS011;6687;47.790;7.322;2022-11-15T07:08:54;0.30;;;0.30;;
13240;SDS011;6687;47.790;7.322;2022-11-15T07:11:21;0.25;;;0.22;;
13240;SDS011;6687;47.790;7.322;2022-11-15T07:13:47;0.35;;;0.30;;
13240;SDS011;6687;47.790;7.322;2022-11-15T07:16:14;0.45;;;0.45;;
13240;SDS011;6687;47.790;7.322;2022-11-15T07:18:41;0.40;;;0.40;;
13240;SDS011;6687;47.790;7.322;2022-11-15T07:21:09;1.15;;;1.15;;
13240;SDS011;6687;47.790;7.322;2022-11-15T07:23:38;0.55;;;0.55;;
13240;SDS011;6687;47.790;7.322;2022-11-15T07:26:05;0.85;;;0.75;;
13240;SDS011;6687;47.790;7.322;2022-11-15T07:28:33;0.68;;;0.68;;
13240;SDS011;6687;47.790;7.322;2022-11-15T07:31:01;0.45;;;0.45;;
13240;SDS011;6687;47.790;7.322;2022-11-15T07:33:29;0.40;;;0.40;;
13240;SDS011;6687;47.790;7.322;2022-11-15T07:35:58;0.57;;;0.57;;
13240;SDS011;6687;47.790;7.322;2022-11-15T07:38:28;1.58;;;1.27;;
13240;SDS011;6687;47.790;7.322;2022-11-15T07:40:55;0.50;;;0.50;;
13240;SDS011;6687;47.790;7.322;2022-11-15T07:43:23;0.40;;;0.40;;
13240;SDS011;6687;47.790;7.322;2022-11-15T07:45:50;0.65;;;0.50;;
13240;SDS011;6687;47.790;7.322;2022-11-15T07:48:17;0.70;;;0.70;;
13240;SDS011;6687;47.790;7.322;2022-11-15T07:50:43;0.60;;;0.60;;
13240;SDS011;6687;47.790;7.322;2022-11-15T07:53:10;0.40;;;0.40;;
13240;SDS011;6687;47.790;7.322;2022-11-15T07:55:39;0.70;;;0.70;;
13240;SDS011;6687;47.790;7.322;2022-11-15T07:58:07;0.90;;;0.90;;
13240;SDS011;6687;47.790;7.322;2022-11-15T08:00:36;1.15;;;1.02;;
13240;SDS011;6687;47.790;7.322;2022-11-15T08:03:04;1.60;;;1.50;;
13240;SDS011;6687;47.790;7.322;2022-11-15T08:05:31;2.03;;;1.60;;
13240;SDS011;6687;47.790;7.322;2022-11-15T08:07:58;1.55;;;1.45;;
13240;SDS011;6687;47.790;7.322;2022-11-15T08:10:25;1.73;;;1.63;;
13240;SDS011;6687;47.790;7.322;2022-11-15T08:13:00;2.40;;;2.08;;
13240;SDS011;6687;47.790;7.322;2022-11-15T08:15:28;1.17;;;1.13;;
13240;SDS011;6687;47.790;7.322;2022-11-15T08:17:56;4.43;;;2.65;;
13240;SDS011;6687;47.790;7.322;2022-11-15T08:20:23;3.42;;;2.33;;
13240;SDS011;6687;47.790;7.322;2022-11-15T08:22:50;2.50;;;1.48;;
13240;SDS011;6687;47.790;7.322;2022-11-15T08:25:17;5.45;;;1.85;;
13240;SDS011;6687;47.790;7.322;2022-11-15T08:27:44;2.42;;;1.83;;
13240;SDS011;6687;47.790;7.322;2022-11-15T08:30:13;1.75;;;1.20;;
13240;SDS011;6687;47.790;7.322;2022-11-15T08:32:41;0.63;;;0.63;;
13240;SDS011;6687;47.790;7.322;2022-11-15T08:35:08;0.80;;;0.80;;
13240;SDS011;6687;47.790;7.322;2022-11-15T08:37:35;1.17;;;1.08;;
13240;SDS011;6687;47.790;7.322;2022-11-15T08:40:01;1.95;;;1.10;;
13240;SDS011;6687;47.790;7.322;2022-11-15T08:42:29;2.30;;;0.88;;
13240;SDS011;6687;47.790;7.322;2022-11-15T08:44:56;0.75;;;0.75;;
13240;SDS011;6687;47.790;7.322;2022-11-15T08:47:24;1.20;;;1.10;;
13240;SDS011;6687;47.790;7.322;2022-11-15T08:49:51;1.58;;;1.17;;
13240;SDS011;6687;47.790;7.322;2022-11-15T08:52:18;1.75;;;1.25;;
13240;SDS011;6687;47.790;7.322;2022-11-15T08:54:45;1.48;;;1.38;;
13240;SDS011;6687;47.790;7.322;2022-11-15T08:57:11;1.40;;;1.30;;
13240;SDS011;6687;47.790;7.322;2022-11-15T08:59:38;1.23;;;1.13;;
13240;SDS011;6687;47.790;7.322;2022-11-15T09:02:05;1.17;;;1.08;;
13240;SDS011;6687;47.790;7.322;2022-11-15T09:04:33;2.15;;;2.00;;
13240;SDS011;6687;47.790;7.322;2022-11-15T09:07:00;5.47;;;2.85;;
13240;SDS011;6687;47.790;7.322;2022-11-15T09:09:27;1.95;;;1.50;;
13240;SDS011;6687;47.790;7.322;2022-11-15T09:11:54;1.60;;;1.50;;
13240;SDS011;6687;47.790;7.322;2022-11-15T09:14:20;6.28;;;1.52;;
13240;SDS011;6687;47.790;7.322;2022-11-15T09:16:47;1.08;;;1.08;;
13240;SDS011;6687;47.790;7.322;2022-11-15T09:19:14;3.05;;;1.90;;
13240;SDS011;6687;47.790;7.322;2022-11-15T09:21:42;2.40;;;2.20;;
13240;SDS011;6687;47.790;7.322;2022-11-15T09:24:08;3.30;;;2.03;;
13240;SDS011;6687;47.790;7.322;2022-11-15T09:26:35;1.98;;;1.88;;
13240;SDS011;6687;47.790;7.322;2022-11-15T09:29:02;2.00;;;1.77;;
13240;SDS011;6687;47.790;7.322;2022-11-15T09:31:29;1.77;;;1.67;;
13240;SDS011;6687;47.790;7.322;2022-11-15T09:33:55;0.75;;;0.75;;
13240;SDS011;6687;47.790;7.322;2022-11-15T09:36:22;1.35;;;1.25;;
13240;SDS011;6687;47.790;7.322;2022-11-15T09:38:51;1.38;;;0.90;;
13240;SDS011;6687;47.790;7.322;2022-11-15T09:41:25;1.23;;;0.98;;
13240;SDS011;6687;47.790;7.322;2022-11-15T09:44:17;1.58;;;1.48;;
13240;SDS011;6687;47.790;7.322;2022-11-15T09:46:58;0.60;;;0.60;;
13240;SDS011;6687;47.790;7.322;2022-11-15T09:49:32;1.25;;;0.90;;
13240;SDS011;6687;47.790;7.322;2022-11-15T09:51:59;0.73;;;0.73;;
13240;SDS011;6687;47.790;7.322;2022-11-15T09:54:28;3.25;;;2.35;;
13240;SDS011;6687;47.790;7.322;2022-11-15T09:57:02;1.73;;;1.60;;
13240;SDS011;6687;47.790;7.322;2022-11-15T09:59:44;0.98;;;0.98;;
13240;SDS011;6687;47.790;7.322;2022-11-15T10:02:22;0.93;;;0.93;;
13240;SDS011;6687;47.790;7.322;2022-11-15T10:05:00;0.80;;;0.80;;
13240;SDS011;6687;47.790;7.322;2022-11-15T10:07:30;0.80;;;0.70;;
13240;SDS011;6687;47.790;7.322;2022-11-15T10:10:09;0.90;;;0.90;;
13240;SDS011;6687;47.790;7.322;2022-11-15T10:12:41;0.90;;;0.90;;
13240;SDS011;6687;47.790;7.322;2022-11-15T10:15:12;1.15;;;0.90;;
13240;SDS011;6687;47.790;7.322;2022-11-15T10:17:48;0.63;;;0.60;;
13240;SDS011;6687;47.790;7.322;2022-11-15T10:20:30;1.02;;;1.02;;
13240;SDS011;6687;47.790;7.322;2022-11-15T10:23:06;1.23;;;1.23;;
13240;SDS011;6687;47.790;7.322;2022-11-15T10:25:39;1.15;;;1.00;;
13240;SDS011;6687;47.790;7.322;2022-11-15T10:28:09;0.90;;;0.88;;
13240;SDS011;6687;47.790;7.322;2022-11-15T10:30:40;1.17;;;1.08;;
13240;SDS011;6687;47.790;7.322;2022-11-15T10:33:17;0.80;;;0.80;;
13240;SDS011;6687;47.790;7.322;2022-11-15T10:35:53;1.13;;;1.02;;
13240;SDS011;6687;47.790;7.322;2022-11-15T10:38:51;1.15;;;0.70;;
13240;SDS011;6687;47.790;7.322;2022-11-15T10:41:22;2.00;;;1.30;;
13240;SDS011;6687;47.790;7.322;2022-11-15T10:44:06;1.63;;;1.52;;
13240;SDS011;6687;47.790;7.322;2022-11-15T10:47:03;0.95;;;0.90;;
13240;SDS011;6687;47.790;7.322;2022-11-15T10:49:32;0.85;;;0.85;;
13240;SDS011;6687;47.790;7.322;2022-11-15T10:52:01;1.65;;;1.55;;
13240;SDS011;6687;47.790;7.322;2022-11-15T10:54:33;1.67;;;1.58;;
13240;SDS011;6687;47.790;7.322;2022-11-15T10:57:06;2.20;;;1.38;;
13240;SDS011;6687;47.790;7.322;2022-11-15T10:59:38;1.80;;;1.30;;
13240;SDS011;6687;47.790;7.322;2022-11-15T11:04:57;0.93;;;0.90;;
13240;SDS011;6687;47.790;7.322;2022-11-15T11:07:25;1.67;;;1.58;;
13240;SDS011;6687;47.790;7.322;2022-11-15T11:09:57;2.15;;;1.95;;
13240;SDS011;6687;47.790;7.322;2022-11-15T11:12:30;1.27;;;1.17;;
13240;SDS011;6687;47.790;7.322;2022-11-15T11:14:58;2.85;;;0.95;;
13240;SDS011;6687;47.790;7.322;2022-11-15T11:17:30;0.80;;;0.80;;
13240;SDS011;6687;47.790;7.322;2022-11-15T11:20:07;0.77;;;0.57;;
13240;SDS011;6687;47.790;7.322;2022-11-15T11:22:40;0.70;;;0.70;;
13240;SDS011;6687;47.790;7.322;2022-11-15T11:25:19;1.10;;;0.88;;
13240;SDS011;6687;47.790;7.322;2022-11-15T11:27:57;0.57;;;0.57;;
13240;SDS011;6687;47.790;7.322;2022-11-15T11:30:49;1.58;;;1.27;;
13240;SDS011;6687;47.790;7.322;2022-11-15T11:33:24;0.90;;;0.90;;
13240;SDS011;6687;47.790;7.322;2022-11-15T11:35:59;2.00;;;1.15;;
13240;SDS011;6687;47.790;7.322;2022-11-15T11:38:45;1.50;;;0.80;;
13240;SDS011;6687;47.790;7.322;2022-11-15T11:44:15;1.65;;;1.55;;
13240;SDS011;6687;47.790;7.322;2022-11-15T11:46:54;0.82;;;0.82;;
13240;SDS011;6687;47.790;7.322;2022-11-15T11:49:25;1.67;;;0.90;;
13240;SDS011;6687;47.790;7.322;2022-11-15T11:51:58;0.95;;;0.90;;
13240;SDS011;6687;47.790;7.322;2022-11-15T11:54:31;1.10;;;1.10;;
13240;SDS011;6687;47.790;7.322;2022-11-15T11:57:05;1.33;;;1.23;;
13240;SDS011;6687;47.790;7.322;2022-11-15T11:59:39;0.70;;;0.70;;
13240;SDS011;6687;47.790;7.322;2022-11-15T12:02:11;2.35;;;1.60;;
13240;SDS011;6687;47.790;7.322;2022-11-15T12:04:42;0.80;;;0.80;;
13240;SDS011;6687;47.790;7.322;2022-11-15T12:07:12;0.70;;;0.70;;
13240;SDS011;6687;47.790;7.322;2022-11-15T12:09:44;1.55;;;1.42;;
13240;SDS011;6687;47.790;7.322;2022-11-15T12:12:18;0.60;;;0.60;;
13240;SDS011;6687;47.790;7.322;2022-11-15T12:14:51;1.17;;;1.17;;
13240;SDS011;6687;47.790;7.322;2022-11-15T12:17:22;1.15;;;1.05;;
13240;SDS011;6687;47.790;7.322;2022-11-15T12:19:51;1.42;;;1.33;;
13240;SDS011;6687;47.790;7.322;2022-11-15T12:22:23;1.23;;;1.13;;
13240;SDS011;6687;47.790;7.322;2022-11-15T12:24:56;0.82;;;0.82;;
13240;SDS011;6687;47.790;7.322;2022-11-15T12:27:29;0.70;;;0.70;;
13240;SDS011;6687;47.790;7.322;2022-11-15T12:30:02;0.90;;;0.90;;
13240;SDS011;6687;47.790;7.322;2022-11-15T12:32:34;1.05;;;1.05;;
13240;SDS011;6687;47.790;7.322;2022-11-15T12:35:04;0.85;;;0.85;;
13240;SDS011;6687;47.790;7.322;2022-11-15T12:37:47;3.05;;;1.05;;
13240;SDS011;6687;47.790;7.322;2022-11-15T12:40:25;1.30;;;1.20;;
13240;SDS011;6687;47.790;7.322;2022-11-15T12:43:01;0.52;;;0.52;;
13240;SDS011;6687;47.790;7.322;2022-11-15T12:45:32;0.93;;;0.68;;
13240;SDS011;6687;47.790;7.322;2022-11-15T12:51:06;0.50;;;0.50;;
13240;SDS011;6687;47.790;7.322;2022-11-15T12:53:33;1.33;;;1.10;;
13240;SDS011;6687;47.790;7.322;2022-11-15T12:56:17;1.33;;;0.90;;
13240;SDS011;6687;47.790;7.322;2022-11-15T12:58:47;0.70;;;0.70;;
13240;SDS011;6687;47.790;7.322;2022-11-15T13:04:25;1.40;;;1.23;;
13240;SDS011;6687;47.790;7.322;2022-11-15T13:06:55;2.95;;;1.20;;
13240;SDS011;6687;47.790;7.322;2022-11-15T13:18:28;1.50;;;1.40;;
13240;SDS011;6687;47.790;7.322;2022-11-15T13:20:59;2.83;;;2.25;;
13240;SDS011;6687;47.790;7.322;2022-11-15T13:23:50;5.35;;;2.70;;
13240;SDS011;6687;47.790;7.322;2022-11-15T13:26:18;6.00;;;3.00;;
13240;SDS011;6687;47.790;7.322;2022-11-15T13:28:46;6.97;;;3.83;;
13240;SDS011;6687;47.790;7.322;2022-11-15T13:31:22;6.18;;;4.30;;
13240;SDS011;6687;47.790;7.322;2022-11-15T13:33:56;6.00;;;3.30;;
13240;SDS011;6687;47.790;7.322;2022-11-15T13:36:28;7.20;;;4.10;;
13240;SDS011;6687;47.790;7.322;2022-11-15T13:38:58;4.82;;;3.15;;
13240;SDS011;6687;47.790;7.322;2022-11-15T13:41:27;4.28;;;3.22;;
13240;SDS011;6687;47.790;7.322;2022-11-15T13:43:56;5.70;;;3.28;;
13240;SDS011;6687;47.790;7.322;2022-11-15T13:46:24;6.28;;;3.00;;
13240;SDS011;6687;47.790;7.322;2022-11-15T13:48:53;3.40;;;2.28;;
13240;SDS011;6687;47.790;7.322;2022-11-15T13:51:24;2.47;;;2.22;;
13240;SDS011;6687;47.790;7.322;2022-11-15T13:53:58;5.97;;;2.97;;
13240;SDS011;6687;47.790;7.322;2022-11-15T13:56:28;12.30;;;5.82;;
13240;SDS011;6687;47.790;7.322;2022-11-15T13:58:59;4.22;;;2.78;;
13240;SDS011;6687;47.790;7.322;2022-11-15T14:01:26;4.25;;;3.10;;
13240;SDS011;6687;47.790;7.322;2022-11-15T14:03:58;7.95;;;3.92;;
13240;SDS011;6687;47.790;7.322;2022-11-15T14:06:27;5.65;;;3.92;;
13240;SDS011;6687;47.790;7.322;2022-11-15T14:08:58;5.22;;;2.63;;
13240;SDS011;6687;47.790;7.322;2022-11-15T14:11:51;9.02;;;4.30;;
13240;SDS011;6687;47.790;7.322;2022-11-15T14:14:20;4.68;;;2.78;;
13240;SDS011;6687;47.790;7.322;2022-11-15T14:16:49;2.85;;;2.47;;
13240;SDS011;6687;47.790;7.322;2022-11-15T14:19:33;2.67;;;2.10;;
13240;SDS011;6687;47.790;7.322;2022-11-15T14:22:10;5.25;;;2.55;;
13240;SDS011;6687;47.790;7.322;2022-11-15T14:24:39;3.90;;;2.90;;
13240;SDS011;6687;47.790;7.322;2022-11-15T14:27:17;4.38;;;2.90;;
13240;SDS011;6687;47.790;7.322;2022-11-15T14:29:46;3.30;;;2.65;;
13240;SDS011;6687;47.790;7.322;2022-11-15T14:32:16;2.55;;;2.35;;
13240;SDS011;6687;47.790;7.322;2022-11-15T14:34:45;5.18;;;3.28;;
13240;SDS011;6687;47.790;7.322;2022-11-15T14:37:18;2.88;;;2.40;;
13240;SDS011;6687;47.790;7.322;2022-11-15T14:39:48;3.88;;;2.78;;
13240;SDS011;6687;47.790;7.322;2022-11-15T14:42:17;3.83;;;2.97;;
13240;SDS011;6687;47.790;7.322;2022-11-15T14:44:45;5.68;;;2.80;;
13240;SDS011;6687;47.790;7.322;2022-11-15T14:47:12;3.80;;;2.60;;
13240;SDS011;6687;47.790;7.322;2022-11-15T14:49:39;3.10;;;2.20;;
13240;SDS011;6687;47.790;7.322;2022-11-15T14:52:22;2.47;;;2.17;;
13240;SDS011;6687;47.790;7.322;2022-11-15T14:54:52;5.03;;;3.45;;
13240;SDS011;6687;47.790;7.322;2022-11-15T14:57:19;2.80;;;2.20;;
13240;SDS011;6687;47.790;7.322;2022-11-15T14:59:46;6.95;;;3.13;;
13240;SDS011;6687;47.790;7.322;2022-11-15T15:02:15;4.30;;;2.88;;
13240;SDS011;6687;47.790;7.322;2022-11-15T15:04:44;2.60;;;2.22;;
13240;SDS011;6687;47.790;7.322;2022-11-15T15:07:10;1.92;;;1.50;;
13240;SDS011;6687;47.790;7.322;2022-11-15T15:09:39;3.58;;;1.65;;
13240;SDS011;6687;47.790;7.322;2022-11-15T15:12:09;3.05;;;1.52;;
13240;SDS011;6687;47.790;7.322;2022-11-15T15:14:40;1.45;;;1.35;;
13240;SDS011;6687;47.790;7.322;2022-11-15T15:17:07;3.38;;;2.05;;
13240;SDS011;6687;47.790;7.322;2022-11-15T15:19:34;4.60;;;2.58;;
13240;SDS011;6687;47.790;7.322;2022-11-15T15:22:00;2.67;;;2.03;;
13240;SDS011;6687;47.790;7.322;2022-11-15T15:24:27;4.60;;;2.60;;
13240;SDS011;6687;47.790;7.322;2022-11-15T15:26:55;2.25;;;1.63;;
13240;SDS011;6687;47.790;7.322;2022-11-15T15:29:22;2.67;;;2.15;;
13240;SDS011;6687;47.790;7.322;2022-11-15T15:31:48;3.13;;;2.22;;
13240;SDS011;6687;47.790;7.322;2022-11-15T15:34:15;2.83;;;2.28;;
13240;SDS011;6687;47.790;7.322;2022-11-15T15:36:42;2.17;;;1.45;;
13240;SDS011;6687;47.790;7.322;2022-11-15T15:39:09;1.88;;;1.65;;
13240;SDS011;6687;47.790;7.322;2022-11-15T15:41:36;2.72;;;2.13;;
13240;SDS011;6687;47.790;7.322;2022-11-15T15:44:04;2.85;;;2.25;;
13240;SDS011;6687;47.790;7.322;2022-11-15T15:46:31;2.88;;;1.70;;
13240;SDS011;6687;47.790;7.322;2022-11-15T15:48:59;3.33;;;2.00;;
13240;SDS011;6687;47.790;7.322;2022-11-15T15:51:25;2.00;;;1.80;;
13240;SDS011;6687;47.790;7.322;2022-11-15T15:53:52;3.20;;;1.90;;
13240;SDS011;6687;47.790;7.322;2022-11-15T15:56:22;1.95;;;1.40;;
13240;SDS011;6687;47.790;7.322;2022-11-15T15:58:49;2.42;;;1.45;;
13240;SDS011;6687;47.790;7.322;2022-11-15T16:01:18;2.13;;;1.65;;
13240;SDS011;6687;47.790;7.322;2022-11-15T16:03:45;1.48;;;1.30;;
13240;SDS011;6687;47.790;7.322;2022-11-15T16:09:04;1.52;;;0.93;;
13240;SDS011;6687;47.790;7.322;2022-11-15T16:11:31;3.90;;;2.08;;
13240;SDS011;6687;47.790;7.322;2022-11-15T16:13:58;1.00;;;1.00;;
13240;SDS011;6687;47.790;7.322;2022-11-15T16:16:27;1.35;;;1.25;;
13240;SDS011;6687;47.790;7.322;2022-11-15T16:18:53;0.85;;;0.85;;
13240;SDS011;6687;47.790;7.322;2022-11-15T16:21:20;1.38;;;1.27;;
13240;SDS011;6687;47.790;7.322;2022-11-15T16:23:47;1.42;;;1.10;;
13240;SDS011;6687;47.790;7.322;2022-11-15T16:26:17;1.90;;;1.80;;
13240;SDS011;6687;47.790;7.322;2022-11-15T16:28:46;1.98;;;1.38;;
13240;SDS011;6687;47.790;7.322;2022-11-15T16:31:13;0.85;;;0.85;;
13240;SDS011;6687;47.790;7.322;2022-11-15T16:33:43;1.20;;;1.00;;
13240;SDS011;6687;47.790;7.322;2022-11-15T16:36:14;0.88;;;0.88;;
13240;SDS011;6687;47.790;7.322;2022-11-15T16:38:46;2.00;;;1.63;;
13240;SDS011;6687;47.790;7.322;2022-11-15T16:41:12;2.22;;;2.03;;
13240;SDS011;6687;47.790;7.322;2022-11-15T16:43:39;1.60;;;1.00;;
13240;SDS011;6687;47.790;7.322;2022-11-15T16:46:06;1.10;;;1.10;;
13240;SDS011;6687;47.790;7.322;2022-11-15T16:48:38;2.67;;;1.80;;
13240;SDS011;6687;47.790;7.322;2022-11-15T16:51:06;2.00;;;1.63;;
13240;SDS011;6687;47.790;7.322;2022-11-15T16:53:33;1.67;;;1.58;;
13240;SDS011;6687;47.790;7.322;2022-11-15T16:56:00;1.20;;;1.10;;
13240;SDS011;6687;47.790;7.322;2022-11-15T16:58:27;1.35;;;0.90;;
13240;SDS011;6687;47.790;7.322;2022-11-15T17:00:54;2.72;;;1.40;;
13240;SDS011;6687;47.790;7.322;2022-11-15T17:03:22;2.10;;;1.52;;
13240;SDS011;6687;47.790;7.322;2022-11-15T17:05:50;1.58;;;1.48;;
13240;SDS011;6687;47.790;7.322;2022-11-15T17:08:18;1.42;;;1.17;;
13240;SDS011;6687;47.790;7.322;2022-11-15T17:10:46;1.70;;;1.33;;
13240;SDS011;6687;47.790;7.322;2022-11-15T17:13:13;1.98;;;1.60;;
13240;SDS011;6687;47.790;7.322;2022-11-15T17:15:40;1.17;;;1.08;;
13240;SDS011;6687;47.790;7.322;2022-11-15T17:18:08;1.40;;;1.30;;
13240;SDS011;6687;47.790;7.322;2022-11-15T17:20:36;1.40;;;1.30;;
13240;SDS011;6687;47.790;7.322;2022-11-15T17:23:03;0.93;;;0.93;;
13240;SDS011;6687;47.790;7.322;2022-11-15T17:25:37;1.33;;;1.05;;
13240;SDS011;6687;47.790;7.322;2022-11-15T17:28:04;1.73;;;1.27;;
13240;SDS011;6687;47.790;7.322;2022-11-15T17:30:30;0.95;;;0.95;;
13240;SDS011;6687;47.790;7.322;2022-11-15T17:32:57;1.27;;;1.10;;
13240;SDS011;6687;47.790;7.322;2022-11-15T17:35:25;2.60;;;1.45;;
13240;SDS011;6687;47.790;7.322;2022-11-15T17:37:52;1.10;;;1.02;;
13240;SDS011;6687;47.790;7.322;2022-11-15T17:40:18;1.30;;;1.20;;
13240;SDS011;6687;47.790;7.322;2022-11-15T17:42:47;1.88;;;1.50;;
13240;SDS011;6687;47.790;7.322;2022-11-15T17:45:13;0.90;;;0.90;;
13240;SDS011;6687;47.790;7.322;2022-11-15T17:47:40;1.50;;;1.40;;
13240;SDS011;6687;47.790;7.322;2022-11-15T17:50:07;1.25;;;1.17;;
13240;SDS011;6687;47.790;7.322;2022-11-15T17:52:35;1.67;;;1.20;;
13240;SDS011;6687;47.790;7.322;2022-11-15T17:55:02;1.58;;;1.00;;
13240;SDS011;6687;47.790;7.322;2022-11-15T17:57:29;1.17;;;1.17;;
13240;SDS011;6687;47.790;7.322;2022-11-15T17:59:57;1.35;;;1.20;;
13240;SDS011;6687;47.790;7.322;2022-11-15T18:02:24;1.10;;;0.98;;
13240;SDS011;6687;47.790;7.322;2022-11-15T18:04:50;0.80;;;0.80;;
13240;SDS011;6687;47.790;7.322;2022-11-15T18:07:17;1.02;;;1.02;;
13240;SDS011;6687;47.790;7.322;2022-11-15T18:09:44;1.65;;;1.42;;
13240;SDS011;6687;47.790;7.322;2022-11-15T18:12:11;1.55;;;1.45;;
13240;SDS011;6687;47.790;7.322;2022-11-15T18:14:38;0.80;;;0.80;;
13240;SDS011;6687;47.790;7.322;2022-11-15T18:17:06;1.38;;;1.27;;
13240;SDS011;6687;47.790;7.322;2022-11-15T18:19:33;0.95;;;0.95;;
13240;SDS011;6687;47.790;7.322;2022-11-15T18:22:00;1.85;;;1.45;;
13240;SDS011;6687;47.790;7.322;2022-11-15T18:24:29;3.47;;;1.65;;
13240;SDS011;6687;47.790;7.322;2022-11-15T18:26:57;1.88;;;1.73;;
13240;SDS011;6687;47.790;7.322;2022-11-15T18:29:25;1.40;;;1.30;;
13240;SDS011;6687;47.790;7.322;2022-11-15T18:31:52;1.23;;;1.23;;
13240;SDS011;6687;47.790;7.322;2022-11-15T18:34:24;2.22;;;1.58;;
13240;SDS011;6687;47.790;7.322;2022-11-15T18:36:55;1.40;;;1.38;;
13240;SDS011;6687;47.790;7.322;2022-11-15T18:39:22;1.33;;;1.27;;
13240;SDS011;6687;47.790;7.322;2022-11-15T18:41:49;0.98;;;0.98;;
13240;SDS011;6687;47.790;7.322;2022-11-15T18:44:16;1.05;;;0.95;;
13240;SDS011;6687;47.790;7.322;2022-11-15T18:46:43;1.27;;;1.20;;
13240;SDS011;6687;47.790;7.322;2022-11-15T18:49:10;1.52;;;1.42;;
13240;SDS011;6687;47.790;7.322;2022-11-15T18:51:39;1.25;;;1.15;;
13240;SDS011;6687;47.790;7.322;2022-11-15T18:54:07;1.55;;;1.45;;
13240;SDS011;6687;47.790;7.322;2022-11-15T18:56:35;1.10;;;1.00;;
13240;SDS011;6687;47.790;7.322;2022-11-15T18:59:02;1.05;;;1.05;;
13240;SDS011;6687;47.790;7.322;2022-11-15T19:01:29;1.13;;;0.98;;
13240;SDS011;6687;47.790;7.322;2022-11-15T19:04:00;1.30;;;1.30;;
13240;SDS011;6687;47.790;7.322;2022-11-15T19:06:29;1.55;;;1.00;;
13240;SDS011;6687;47.790;7.322;2022-11-15T19:08:58;1.73;;;1.63;;
13240;SDS011;6687;47.790;7.322;2022-11-15T19:11:25;1.08;;;1.02;;
13240;SDS011;6687;47.790;7.322;2022-11-15T19:13:55;1.73;;;1.23;;
13240;SDS011;6687;47.790;7.322;2022-11-15T19:16:24;2.10;;;1.85;;
13240;SDS011;6687;47.790;7.322;2022-11-15T19:18:51;1.60;;;1.50;;
13240;SDS011;6687;47.790;7.322;2022-11-15T19:21:19;1.63;;;1.52;;
13240;SDS011;6687;47.790;7.322;2022-11-15T19:23:45;1.98;;;1.67;;
13240;SDS011;6687;47.790;7.322;2022-11-15T19:26:14;1.83;;;1.67;;
13240;SDS011;6687;47.790;7.322;2022-11-15T19:28:41;1.55;;;1.45;;
13240;SDS011;6687;47.790;7.322;2022-11-15T19:31:09;5.30;;;3.50;;
13240;SDS011;6687;47.790;7.322;2022-11-15T19:33:38;1.80;;;1.70;;
13240;SDS011;6687;47.790;7.322;2022-11-15T19:36:06;1.77;;;1.67;;
13240;SDS011;6687;47.790;7.322;2022-11-15T19:38:36;1.75;;;1.65;;
13240;SDS011;6687;47.790;7.322;2022-11-15T19:41:04;2.00;;;1.88;;
13240;SDS011;6687;47.790;7.322;2022-11-15T19:43:33;2.05;;;1.95;;
13240;SDS011;6687;47.790;7.322;2022-11-15T19:46:01;1.95;;;1.48;;
13240;SDS011;6687;47.790;7.322;2022-11-15T19:48:29;1.60;;;1.48;;
13240;SDS011;6687;47.790;7.322;2022-11-15T19:50:58;2.38;;;1.98;;
13240;SDS011;6687;47.790;7.322;2022-11-15T19:53:26;1.55;;;1.45;;
13240;SDS011;6687;47.790;7.322;2022-11-15T19:55:54;1.48;;;1.38;;
13240;SDS011;6687;47.790;7.322;2022-11-15T19:58:21;1.38;;;1.27;;
13240;SDS011;6687;47.790;7.322;2022-11-15T20:00:50;1.70;;;1.10;;
13240;SDS011;6687;47.790;7.322;2022-11-15T20:03:17;1.70;;;1.60;;
13240;SDS011;6687;47.790;7.322;2022-11-15T20:05:44;1.85;;;1.15;;
13240;SDS011;6687;47.790;7.322;2022-11-15T20:08:11;1.75;;;1.17;;
13240;SDS011;6687;47.790;7.322;2022-11-15T20:10:37;1.40;;;1.30;;
13240;SDS011;6687;47.790;7.322;2022-11-15T20:13:04;1.30;;;1.20;;
13240;SDS011;6687;47.790;7.322;2022-11-15T20:15:31;0.88;;;0.88;;
13240;SDS011;6687;47.790;7.322;2022-11-15T20:17:59;1.42;;;1.20;;
13240;SDS011;6687;47.790;7.322;2022-11-15T20:20:26;0.70;;;0.70;;
13240;SDS011;6687;47.790;7.322;2022-11-15T20:22:52;2.30;;;0.95;;
13240;SDS011;6687;47.790;7.322;2022-11-15T20:25:19;0.80;;;0.80;;
13240;SDS011;6687;47.790;7.322;2022-11-15T20:27:46;1.13;;;1.00;;
13240;SDS011;6687;47.790;7.322;2022-11-15T20:30:12;0.90;;;0.90;;
13240;SDS011;6687;47.790;7.322;2022-11-15T20:32:39;0.77;;;0.77;;
13240;SDS011;6687;47.790;7.322;2022-11-15T20:35:08;0.80;;;0.80;;
13240;SDS011;6687;47.790;7.322;2022-11-15T20:37:34;0.90;;;0.90;;
13240;SDS011;6687;47.790;7.322;2022-11-15T20:40:01;0.80;;;0.80;;
13240;SDS011;6687;47.790;7.322;2022-11-15T20:42:28;1.08;;;1.00;;
13240;SDS011;6687;47.790;7.322;2022-11-15T20:44:55;0.85;;;0.80;;
13240;SDS011;6687;47.790;7.322;2022-11-15T20:47:22;1.08;;;1.05;;
13240;SDS011;6687;47.790;7.322;2022-11-15T20:49:48;2.03;;;1.13;;
13240;SDS011;6687;47.790;7.322;2022-11-15T20:52:16;1.38;;;1.05;;
13240;SDS011;6687;47.790;7.322;2022-11-15T20:54:45;1.30;;;1.10;;
13240;SDS011;6687;47.790;7.322;2022-11-15T20:57:11;1.67;;;0.60;;
13240;SDS011;6687;47.790;7.322;2022-11-15T20:59:38;3.75;;;1.58;;
13240;SDS011;6687;47.790;7.322;2022-11-15T21:02:05;1.23;;;0.80;;
13240;SDS011;6687;47.790;7.322;2022-11-15T21:04:32;1.42;;;1.20;;
13240;SDS011;6687;47.790;7.322;2022-11-15T21:06:58;0.98;;;0.98;;
13240;SDS011;6687;47.790;7.322;2022-11-15T21:09:26;0.95;;;0.95;;
13240;SDS011;6687;47.790;7.322;2022-11-15T21:12:11;1.30;;;1.20;;
13240;SDS011;6687;47.790;7.322;2022-11-15T21:14:39;1.35;;;1.25;;
13240;SDS011;6687;47.790;7.322;2022-11-15T21:17:07;0.77;;;0.77;;
13240;SDS011;6687;47.790;7.322;2022-11-15T21:19:33;1.25;;;0.90;;
13240;SDS011;6687;47.790;7.322;2022-11-15T21:22:01;0.68;;;0.68;;
13240;SDS011;6687;47.790;7.322;2022-11-15T21:24:30;2.13;;;1.30;;
13240;SDS011;6687;47.790;7.322;2022-11-15T21:26:56;1.23;;;1.20;;
13240;SDS011;6687;47.790;7.322;2022-11-15T21:29:23;1.33;;;1.23;;
13240;SDS011;6687;47.790;7.322;2022-11-15T21:31:50;1.27;;;1.17;;
13240;SDS011;6687;47.790;7.322;2022-11-15T21:34:18;0.43;;;0.43;;
13240;SDS011;6687;47.790;7.322;2022-11-15T21:36:45;0.65;;;0.65;;
13240;SDS011;6687;47.790;7.322;2022-11-15T21:39:12;1.13;;;1.00;;
13240;SDS011;6687;47.790;7.322;2022-11-15T21:41:41;1.95;;;1.02;;
13240;SDS011;6687;47.790;7.322;2022-11-15T21:44:07;0.77;;;0.77;;
13240;SDS011;6687;47.790;7.322;2022-11-15T21:46:34;1.13;;;1.00;;
13240;SDS011;6687;47.790;7.322;2022-11-15T21:49:01;0.50;;;0.50;;